sensor_id;sensor_type;location;lat;lon;timestamp;P1;durP1;ratioP1;P2;durP2;ratioP2
69970;SDS011;57301;50.328;8.542;2023-01-30T00:01:03;29.27;;;13.65;;
69970;SDS011;57301;50.328;8.542;2023-01-30T00:03:31;30.23;;;13.55;;
69970;SDS011;57301;50.328;8.542;2023-01-30T00:05:57;30.63;;;13.33;;
69970;SDS011;57301;50.328;8.542;2023-01-30T00:08:24;27.80;;;13.07;;
69970;SDS011;57301;50.328;8.542;2023-01-30T00:10:50;28.52;;;13.70;;
69970;SDS011;57301;50.328;8.542;2023-01-30T00:13:17;31.05;;;15.00;;
69970;SDS011;57301;50.328;8.542;2023-01-30T00:15:43;32.47;;;14.63;;
69970;SDS011;57301;50.328;8.542;2023-01-30T00:18:10;28.83;;;13.53;;
69970;SDS011;57301;50.328;8.542;2023-01-30T00:20:36;29.08;;;13.65;;
69970;SDS011;57301;50.328;8.542;2023-01-30T00:23:03;28.38;;;12.13;;
69970;SDS011;57301;50.328;8.542;2023-01-30T00:25:30;29.30;;;12.32;;
69970;SDS011;57301;50.328;8.542;2023-01-30T00:28:00;28.08;;;12.48;;
69970;SDS011;57301;50.328;8.542;2023-01-30T00:30:27;28.40;;;12.00;;
69970;SDS011;57301;50.328;8.542;2023-01-30T00:32:55;27.48;;;12.73;;
69970;SDS011;57301;50.328;8.542;2023-01-30T00:35:22;28.20;;;13.48;;
69970;SDS011;57301;50.328;8.542;2023-01-30T00:37:54;27.20;;;12.73;;
69970;SDS011;57301;50.328;8.542;2023-01-30T00:40:22;25.20;;;11.65;;
69970;SDS011;57301;50.328;8.542;2023-01-30T00:42:50;24.87;;;11.37;;
69970;SDS011;57301;50.328;8.542;2023-01-30T00:45:36;24.92;;;10.98;;
69970;SDS011;57301;50.328;8.542;2023-01-30T00:48:24;27.00;;;11.60;;
69970;SDS011;57301;50.328;8.542;2023-01-30T00:50:51;25.50;;;11.70;;
69970;SDS011;57301;50.328;8.542;2023-01-30T00:53:17;26.75;;;12.25;;
69970;SDS011;57301;50.328;8.542;2023-01-30T00:55:44;31.10;;;12.83;;
69970;SDS011;57301;50.328;8.542;2023-01-30T00:58:11;24.33;;;11.50;;
69970;SDS011;57301;50.328;8.542;2023-01-30T01:00:38;25.85;;;11.18;;
69970;SDS011;57301;50.328;8.542;2023-01-30T01:03:05;25.13;;;11.35;;
69970;SDS011;57301;50.328;8.542;2023-01-30T01:05:32;19.80;;;9.18;;
69970;SDS011;57301;50.328;8.542;2023-01-30T01:07:58;26.43;;;11.50;;
69970;SDS011;57301;50.328;8.542;2023-01-30T01:10:25;25.35;;;11.18;;
69970;SDS011;57301;50.328;8.542;2023-01-30T01:12:52;24.40;;;10.88;;
69970;SDS011;57301;50.328;8.542;2023-01-30T01:15:19;24.25;;;10.27;;
69970;SDS011;57301;50.328;8.542;2023-01-30T01:17:47;21.83;;;10.07;;
69970;SDS011;57301;50.328;8.542;2023-01-30T01:20:14;22.07;;;10.50;;
69970;SDS011;57301;50.328;8.542;2023-01-30T01:22:42;23.33;;;9.43;;
69970;SDS011;57301;50.328;8.542;2023-01-30T01:25:09;18.63;;;9.07;;
69970;SDS011;57301;50.328;8.542;2023-01-30T01:27:36;21.90;;;9.50;;
69970;SDS011;57301;50.328;8.542;2023-01-30T01:30:04;17.45;;;7.90;;
69970;SDS011;57301;50.328;8.542;2023-01-30T01:32:31;21.50;;;10.47;;
69970;SDS011;57301;50.328;8.542;2023-01-30T01:34:58;20.55;;;10.07;;
69970;SDS011;57301;50.328;8.542;2023-01-30T01:37:24;19.85;;;9.10;;
69970;SDS011;57301;50.328;8.542;2023-01-30T01:39:51;18.98;;;9.07;;
69970;SDS011;57301;50.328;8.542;2023-01-30T01:42:36;21.17;;;10.13;;
69970;SDS011;57301;50.328;8.542;2023-01-30T01:47:37;18.80;;;9.02;;
69970;SDS011;57301;50.328;8.542;2023-01-30T01:50:10;19.25;;;9.57;;
69970;SDS011;57301;50.328;8.542;2023-01-30T01:52:40;18.67;;;9.00;;
69970;SDS011;57301;50.328;8.542;2023-01-30T01:55:08;20.83;;;9.95;;
69970;SDS011;57301;50.328;8.542;2023-01-30T01:57:44;20.17;;;9.57;;
69970;SDS011;57301;50.328;8.542;2023-01-30T02:00:17;17.20;;;9.10;;
69970;SDS011;57301;50.328;8.542;2023-01-30T02:02:51;17.98;;;9.18;;
69970;SDS011;57301;50.328;8.542;2023-01-30T02:05:24;20.30;;;9.90;;
69970;SDS011;57301;50.328;8.542;2023-01-30T02:11:13;18.50;;;8.97;;
69970;SDS011;57301;50.328;8.542;2023-01-30T02:13:47;19.15;;;8.88;;
69970;SDS011;57301;50.328;8.542;2023-01-30T02:16:15;16.45;;;8.35;;
69970;SDS011;57301;50.328;8.542;2023-01-30T02:18:42;17.67;;;8.25;;
69970;SDS011;57301;50.328;8.542;2023-01-30T02:21:18;18.88;;;9.07;;
69970;SDS011;57301;50.328;8.542;2023-01-30T02:32:33;18.63;;;8.82;;
69970;SDS011;57301;50.328;8.542;2023-01-30T02:38:54;19.13;;;9.33;;
69970;SDS011;57301;50.328;8.542;2023-01-30T02:40:58;17.13;;;8.65;;
69970;SDS011;57301;50.328;8.542;2023-01-30T02:43:36;15.95;;;8.02;;
69970;SDS011;57301;50.328;8.542;2023-01-30T02:46:17;20.00;;;8.60;;
69970;SDS011;57301;50.328;8.542;2023-01-30T02:51:57;18.70;;;8.13;;
69970;SDS011;57301;50.328;8.542;2023-01-30T02:54:26;16.90;;;8.65;;
69970;SDS011;57301;50.328;8.542;2023-01-30T02:56:56;18.15;;;8.88;;
69970;SDS011;57301;50.328;8.542;2023-01-30T02:59:34;19.48;;;9.23;;
69970;SDS011;57301;50.328;8.542;2023-01-30T03:07:37;17.10;;;7.80;;
69970;SDS011;57301;50.328;8.542;2023-01-30T03:13:02;16.65;;;8.43;;
69970;SDS011;57301;50.328;8.542;2023-01-30T03:15:41;18.55;;;9.23;;
69970;SDS011;57301;50.328;8.542;2023-01-30T03:18:13;17.63;;;8.33;;
69970;SDS011;57301;50.328;8.542;2023-01-30T03:20:41;18.88;;;9.27;;
69970;SDS011;57301;50.328;8.542;2023-01-30T03:23:08;15.80;;;8.30;;
69970;SDS011;57301;50.328;8.542;2023-01-30T03:25:34;16.27;;;8.15;;
69970;SDS011;57301;50.328;8.542;2023-01-30T03:28:03;16.40;;;7.90;;
69970;SDS011;57301;50.328;8.542;2023-01-30T03:30:31;16.87;;;8.23;;
69970;SDS011;57301;50.328;8.542;2023-01-30T03:32:57;16.17;;;7.72;;
69970;SDS011;57301;50.328;8.542;2023-01-30T03:35:24;16.48;;;8.40;;
69970;SDS011;57301;50.328;8.542;2023-01-30T03:37:52;14.93;;;8.52;;
69970;SDS011;57301;50.328;8.542;2023-01-30T03:40:18;16.83;;;8.00;;
69970;SDS011;57301;50.328;8.542;2023-01-30T03:42:45;16.50;;;8.00;;
69970;SDS011;57301;50.328;8.542;2023-01-30T03:45:11;16.73;;;8.27;;
69970;SDS011;57301;50.328;8.542;2023-01-30T03:47:38;19.23;;;8.88;;
69970;SDS011;57301;50.328;8.542;2023-01-30T03:50:04;15.45;;;8.43;;
69970;SDS011;57301;50.328;8.542;2023-01-30T03:52:33;16.65;;;8.38;;
69970;SDS011;57301;50.328;8.542;2023-01-30T03:55:00;14.93;;;8.13;;
69970;SDS011;57301;50.328;8.542;2023-01-30T03:57:27;17.88;;;9.27;;
69970;SDS011;57301;50.328;8.542;2023-01-30T03:59:53;16.92;;;8.35;;
69970;SDS011;57301;50.328;8.542;2023-01-30T04:02:20;18.60;;;9.18;;
69970;SDS011;57301;50.328;8.542;2023-01-30T04:04:48;17.05;;;9.00;;
69970;SDS011;57301;50.328;8.542;2023-01-30T04:07:15;16.70;;;8.67;;
69970;SDS011;57301;50.328;8.542;2023-01-30T04:09:41;19.00;;;10.02;;
69970;SDS011;57301;50.328;8.542;2023-01-30T04:12:08;19.00;;;9.70;;
69970;SDS011;57301;50.328;8.542;2023-01-30T04:14:34;15.10;;;7.95;;
69970;SDS011;57301;50.328;8.542;2023-01-30T04:17:00;18.70;;;8.35;;
69970;SDS011;57301;50.328;8.542;2023-01-30T04:19:27;16.77;;;8.30;;
69970;SDS011;57301;50.328;8.542;2023-01-30T04:21:53;16.17;;;8.45;;
69970;SDS011;57301;50.328;8.542;2023-01-30T04:24:20;17.25;;;8.43;;
69970;SDS011;57301;50.328;8.542;2023-01-30T04:26:46;19.83;;;8.80;;
69970;SDS011;57301;50.328;8.542;2023-01-30T04:29:13;16.98;;;9.07;;
69970;SDS011;57301;50.328;8.542;2023-01-30T04:31:39;16.07;;;8.20;;
69970;SDS011;57301;50.328;8.542;2023-01-30T04:34:06;17.17;;;8.50;;
69970;SDS011;57301;50.328;8.542;2023-01-30T04:36:32;18.10;;;9.05;;
69970;SDS011;57301;50.328;8.542;2023-01-30T04:38:58;14.63;;;7.57;;
69970;SDS011;57301;50.328;8.542;2023-01-30T04:41:25;16.38;;;8.10;;
69970;SDS011;57301;50.328;8.542;2023-01-30T04:43:51;18.03;;;8.73;;
69970;SDS011;57301;50.328;8.542;2023-01-30T04:46:18;16.27;;;8.07;;
69970;SDS011;57301;50.328;8.542;2023-01-30T04:48:45;17.70;;;9.05;;
69970;SDS011;57301;50.328;8.542;2023-01-30T04:51:11;17.98;;;8.52;;
69970;SDS011;57301;50.328;8.542;2023-01-30T04:53:38;15.10;;;7.60;;
69970;SDS011;57301;50.328;8.542;2023-01-30T04:56:04;16.20;;;8.30;;
69970;SDS011;57301;50.328;8.542;2023-01-30T04:58:31;17.40;;;8.13;;
69970;SDS011;57301;50.328;8.542;2023-01-30T05:03:48;18.73;;;8.60;;
69970;SDS011;57301;50.328;8.542;2023-01-30T05:06:18;13.45;;;7.75;;
69970;SDS011;57301;50.328;8.542;2023-01-30T05:08:49;17.13;;;9.03;;
69970;SDS011;57301;50.328;8.542;2023-01-30T05:11:17;14.45;;;7.95;;
69970;SDS011;57301;50.328;8.542;2023-01-30T05:13:44;16.92;;;8.75;;
69970;SDS011;57301;50.328;8.542;2023-01-30T05:16:12;16.48;;;8.75;;
69970;SDS011;57301;50.328;8.542;2023-01-30T05:18:40;16.02;;;7.78;;
69970;SDS011;57301;50.328;8.542;2023-01-30T05:21:08;16.23;;;8.20;;
69970;SDS011;57301;50.328;8.542;2023-01-30T05:23:39;17.80;;;8.43;;
69970;SDS011;57301;50.328;8.542;2023-01-30T05:26:06;17.65;;;9.57;;
69970;SDS011;57301;50.328;8.542;2023-01-30T05:28:33;17.80;;;9.25;;
69970;SDS011;57301;50.328;8.542;2023-01-30T05:31:00;21.27;;;9.05;;
69970;SDS011;57301;50.328;8.542;2023-01-30T05:33:28;21.50;;;10.33;;
69970;SDS011;57301;50.328;8.542;2023-01-30T05:35:54;19.55;;;8.93;;
69970;SDS011;57301;50.328;8.542;2023-01-30T05:38:21;18.25;;;9.50;;
69970;SDS011;57301;50.328;8.542;2023-01-30T05:43:29;15.43;;;8.10;;
69970;SDS011;57301;50.328;8.542;2023-01-30T05:45:57;17.20;;;8.17;;
69970;SDS011;57301;50.328;8.542;2023-01-30T05:48:25;16.23;;;8.63;;
69970;SDS011;57301;50.328;8.542;2023-01-30T05:50:52;20.50;;;10.02;;
69970;SDS011;57301;50.328;8.542;2023-01-30T05:53:20;16.15;;;8.27;;
69970;SDS011;57301;50.328;8.542;2023-01-30T05:55:54;15.45;;;7.88;;
69970;SDS011;57301;50.328;8.542;2023-01-30T05:58:21;15.67;;;7.93;;
69970;SDS011;57301;50.328;8.542;2023-01-30T06:00:48;12.63;;;7.00;;
69970;SDS011;57301;50.328;8.542;2023-01-30T06:03:15;14.80;;;8.02;;
69970;SDS011;57301;50.328;8.542;2023-01-30T06:05:42;14.52;;;7.82;;
69970;SDS011;57301;50.328;8.542;2023-01-30T06:08:08;17.00;;;8.57;;
69970;SDS011;57301;50.328;8.542;2023-01-30T06:10:35;15.73;;;7.83;;
69970;SDS011;57301;50.328;8.542;2023-01-30T06:13:01;17.58;;;8.48;;
69970;SDS011;57301;50.328;8.542;2023-01-30T06:15:28;17.15;;;8.80;;
69970;SDS011;57301;50.328;8.542;2023-01-30T06:17:55;17.13;;;9.20;;
69970;SDS011;57301;50.328;8.542;2023-01-30T06:20:22;15.10;;;7.60;;
69970;SDS011;57301;50.328;8.542;2023-01-30T06:22:48;13.67;;;6.93;;
69970;SDS011;57301;50.328;8.542;2023-01-30T06:25:14;14.50;;;8.15;;
69970;SDS011;57301;50.328;8.542;2023-01-30T06:27:41;13.82;;;7.22;;
69970;SDS011;57301;50.328;8.542;2023-01-30T06:30:10;13.82;;;7.25;;
69970;SDS011;57301;50.328;8.542;2023-01-30T06:32:37;11.95;;;6.43;;
69970;SDS011;57301;50.328;8.542;2023-01-30T06:35:04;14.23;;;7.67;;
69970;SDS011;57301;50.328;8.542;2023-01-30T06:37:30;17.17;;;8.13;;
69970;SDS011;57301;50.328;8.542;2023-01-30T06:39:57;15.82;;;8.85;;
69970;SDS011;57301;50.328;8.542;2023-01-30T06:42:23;14.35;;;7.88;;
69970;SDS011;57301;50.328;8.542;2023-01-30T06:44:50;11.02;;;6.70;;
69970;SDS011;57301;50.328;8.542;2023-01-30T06:47:16;12.20;;;6.90;;
69970;SDS011;57301;50.328;8.542;2023-01-30T06:49:43;14.52;;;7.00;;
69970;SDS011;57301;50.328;8.542;2023-01-30T06:52:09;12.80;;;6.85;;
69970;SDS011;57301;50.328;8.542;2023-01-30T06:54:36;13.75;;;6.95;;
69970;SDS011;57301;50.328;8.542;2023-01-30T06:57:02;13.40;;;6.75;;
69970;SDS011;57301;50.328;8.542;2023-01-30T06:59:29;14.40;;;7.33;;
69970;SDS011;57301;50.328;8.542;2023-01-30T07:01:56;11.68;;;6.80;;
69970;SDS011;57301;50.328;8.542;2023-01-30T07:04:22;12.75;;;7.85;;
69970;SDS011;57301;50.328;8.542;2023-01-30T07:06:49;13.38;;;7.40;;
69970;SDS011;57301;50.328;8.542;2023-01-30T07:09:15;12.65;;;6.53;;
69970;SDS011;57301;50.328;8.542;2023-01-30T07:11:42;13.53;;;8.00;;
69970;SDS011;57301;50.328;8.542;2023-01-30T07:14:09;12.38;;;6.80;;
69970;SDS011;57301;50.328;8.542;2023-01-30T07:16:35;12.27;;;6.53;;
69970;SDS011;57301;50.328;8.542;2023-01-30T07:19:02;11.27;;;6.32;;
69970;SDS011;57301;50.328;8.542;2023-01-30T07:21:28;12.93;;;7.55;;
69970;SDS011;57301;50.328;8.542;2023-01-30T07:23:55;10.47;;;5.40;;
69970;SDS011;57301;50.328;8.542;2023-01-30T07:26:21;14.90;;;7.20;;
69970;SDS011;57301;50.328;8.542;2023-01-30T07:28:48;10.35;;;6.35;;
69970;SDS011;57301;50.328;8.542;2023-01-30T07:31:14;10.48;;;6.13;;
69970;SDS011;57301;50.328;8.542;2023-01-30T07:33:41;10.43;;;5.80;;
69970;SDS011;57301;50.328;8.542;2023-01-30T07:36:07;9.10;;;5.30;;
69970;SDS011;57301;50.328;8.542;2023-01-30T07:38:34;9.57;;;5.47;;
69970;SDS011;57301;50.328;8.542;2023-01-30T07:41:00;9.35;;;5.38;;
69970;SDS011;57301;50.328;8.542;2023-01-30T07:43:27;11.95;;;6.88;;
69970;SDS011;57301;50.328;8.542;2023-01-30T07:45:53;9.43;;;5.65;;
69970;SDS011;57301;50.328;8.542;2023-01-30T07:48:20;11.23;;;5.33;;
69970;SDS011;57301;50.328;8.542;2023-01-30T07:50:47;9.57;;;5.63;;
69970;SDS011;57301;50.328;8.542;2023-01-30T07:53:14;13.02;;;5.75;;
69970;SDS011;57301;50.328;8.542;2023-01-30T07:55:42;10.38;;;5.82;;
69970;SDS011;57301;50.328;8.542;2023-01-30T07:58:12;9.60;;;5.47;;
69970;SDS011;57301;50.328;8.542;2023-01-30T08:00:42;9.13;;;5.70;;
69970;SDS011;57301;50.328;8.542;2023-01-30T08:03:10;9.70;;;5.00;;
69970;SDS011;57301;50.328;8.542;2023-01-30T08:05:38;9.30;;;4.40;;
69970;SDS011;57301;50.328;8.542;2023-01-30T08:08:04;10.10;;;5.30;;
69970;SDS011;57301;50.328;8.542;2023-01-30T08:10:31;8.43;;;5.25;;
69970;SDS011;57301;50.328;8.542;2023-01-30T08:12:57;8.93;;;4.73;;
69970;SDS011;57301;50.328;8.542;2023-01-30T08:15:24;8.45;;;4.85;;
69970;SDS011;57301;50.328;8.542;2023-01-30T08:17:53;7.40;;;4.60;;
69970;SDS011;57301;50.328;8.542;2023-01-30T08:20:21;8.98;;;4.78;;
69970;SDS011;57301;50.328;8.542;2023-01-30T08:22:48;7.63;;;4.30;;
69970;SDS011;57301;50.328;8.542;2023-01-30T08:25:14;7.60;;;4.37;;
69970;SDS011;57301;50.328;8.542;2023-01-30T08:27:41;8.55;;;4.10;;
69970;SDS011;57301;50.328;8.542;2023-01-30T08:30:08;7.43;;;3.97;;
69970;SDS011;57301;50.328;8.542;2023-01-30T08:32:36;5.88;;;3.60;;
69970;SDS011;57301;50.328;8.542;2023-01-30T08:35:02;7.05;;;3.80;;
69970;SDS011;57301;50.328;8.542;2023-01-30T08:37:29;6.57;;;3.67;;
69970;SDS011;57301;50.328;8.542;2023-01-30T08:39:56;5.80;;;3.78;;
69970;SDS011;57301;50.328;8.542;2023-01-30T08:42:22;7.38;;;3.75;;
69970;SDS011;57301;50.328;8.542;2023-01-30T08:44:49;9.80;;;3.45;;
69970;SDS011;57301;50.328;8.542;2023-01-30T08:47:16;5.95;;;3.72;;
69970;SDS011;57301;50.328;8.542;2023-01-30T08:49:42;8.50;;;3.67;;
69970;SDS011;57301;50.328;8.542;2023-01-30T08:52:09;5.05;;;3.10;;
69970;SDS011;57301;50.328;8.542;2023-01-30T08:54:35;5.03;;;3.17;;
69970;SDS011;57301;50.328;8.542;2023-01-30T08:57:02;8.00;;;3.17;;
69970;SDS011;57301;50.328;8.542;2023-01-30T08:59:29;4.65;;;2.60;;
69970;SDS011;57301;50.328;8.542;2023-01-30T09:01:55;5.53;;;3.10;;
69970;SDS011;57301;50.328;8.542;2023-01-30T09:04:22;5.80;;;3.00;;
69970;SDS011;57301;50.328;8.542;2023-01-30T09:06:50;5.35;;;3.30;;
69970;SDS011;57301;50.328;8.542;2023-01-30T09:09:16;4.75;;;3.00;;
69970;SDS011;57301;50.328;8.542;2023-01-30T09:11:43;4.30;;;2.50;;
69970;SDS011;57301;50.328;8.542;2023-01-30T09:14:09;5.07;;;2.80;;
69970;SDS011;57301;50.328;8.542;2023-01-30T09:16:36;4.15;;;2.40;;
69970;SDS011;57301;50.328;8.542;2023-01-30T09:19:02;3.92;;;2.63;;
69970;SDS011;57301;50.328;8.542;2023-01-30T09:21:29;4.53;;;2.30;;
69970;SDS011;57301;50.328;8.542;2023-01-30T09:23:57;4.47;;;2.67;;
69970;SDS011;57301;50.328;8.542;2023-01-30T09:26:23;4.70;;;2.87;;
69970;SDS011;57301;50.328;8.542;2023-01-30T09:28:50;5.15;;;2.50;;
69970;SDS011;57301;50.328;8.542;2023-01-30T09:31:16;4.55;;;2.83;;
69970;SDS011;57301;50.328;8.542;2023-01-30T09:33:43;5.55;;;2.20;;
69970;SDS011;57301;50.328;8.542;2023-01-30T09:36:10;4.32;;;2.47;;
69970;SDS011;57301;50.328;8.542;2023-01-30T09:38:36;5.37;;;3.00;;
69970;SDS011;57301;50.328;8.542;2023-01-30T09:41:31;4.05;;;2.60;;
69970;SDS011;57301;50.328;8.542;2023-01-30T09:52:25;3.03;;;2.10;;
69970;SDS011;57301;50.328;8.542;2023-01-30T09:54:59;2.80;;;1.92;;
69970;SDS011;57301;50.328;8.542;2023-01-30T09:57:39;2.88;;;1.65;;
69970;SDS011;57301;50.328;8.542;2023-01-30T10:00:24;3.22;;;1.90;;
69970;SDS011;57301;50.328;8.542;2023-01-30T10:03:10;2.72;;;1.73;;
69970;SDS011;57301;50.328;8.542;2023-01-30T10:19:38;3.30;;;1.70;;
69970;SDS011;57301;50.328;8.542;2023-01-30T10:28:05;5.45;;;2.70;;
69970;SDS011;57301;50.328;8.542;2023-01-30T10:30:42;3.10;;;1.90;;
69970;SDS011;57301;50.328;8.542;2023-01-30T10:33:15;3.30;;;2.00;;
69970;SDS011;57301;50.328;8.542;2023-01-30T10:35:48;3.05;;;1.80;;
69970;SDS011;57301;50.328;8.542;2023-01-30T10:38:34;3.03;;;1.88;;
69970;SDS011;57301;50.328;8.542;2023-01-30T10:41:21;3.05;;;1.80;;
69970;SDS011;57301;50.328;8.542;2023-01-30T10:43:58;2.70;;;1.70;;
69970;SDS011;57301;50.328;8.542;2023-01-30T10:47:01;3.40;;;1.50;;
69970;SDS011;57301;50.328;8.542;2023-01-30T10:55:02;3.80;;;2.20;;
69970;SDS011;57301;50.328;8.542;2023-01-30T11:00:28;3.77;;;2.30;;
69970;SDS011;57301;50.328;8.542;2023-01-30T11:08:30;4.50;;;2.10;;
69970;SDS011;57301;50.328;8.542;2023-01-30T11:10:58;3.40;;;2.08;;
69970;SDS011;57301;50.328;8.542;2023-01-30T11:13:27;2.90;;;1.87;;
69970;SDS011;57301;50.328;8.542;2023-01-30T11:15:56;3.05;;;1.80;;
69970;SDS011;57301;50.328;8.542;2023-01-30T11:18:25;4.05;;;1.95;;
69970;SDS011;57301;50.328;8.542;2023-01-30T11:21:13;3.80;;;1.95;;
69970;SDS011;57301;50.328;8.542;2023-01-30T11:24:14;5.38;;;2.08;;
69970;SDS011;57301;50.328;8.542;2023-01-30T11:26:43;3.67;;;2.17;;
69970;SDS011;57301;50.328;8.542;2023-01-30T11:31:41;4.40;;;2.50;;
69970;SDS011;57301;50.328;8.542;2023-01-30T11:34:12;4.25;;;2.05;;
69970;SDS011;57301;50.328;8.542;2023-01-30T11:36:41;4.88;;;2.40;;
69970;SDS011;57301;50.328;8.542;2023-01-30T11:42:11;6.32;;;2.35;;
69970;SDS011;57301;50.328;8.542;2023-01-30T11:44:36;4.15;;;2.30;;
69970;SDS011;57301;50.328;8.542;2023-01-30T11:47:09;6.97;;;3.15;;
69970;SDS011;57301;50.328;8.542;2023-01-30T11:49:47;5.07;;;2.28;;
69970;SDS011;57301;50.328;8.542;2023-01-30T11:52:37;5.13;;;2.67;;
69970;SDS011;57301;50.328;8.542;2023-01-30T11:55:08;3.97;;;2.13;;
69970;SDS011;57301;50.328;8.542;2023-01-30T11:58:21;4.15;;;2.30;;
69970;SDS011;57301;50.328;8.542;2023-01-30T12:00:37;6.95;;;3.08;;
69970;SDS011;57301;50.328;8.542;2023-01-30T12:03:05;4.25;;;2.00;;
69970;SDS011;57301;50.328;8.542;2023-01-30T12:05:37;11.50;;;2.63;;
69970;SDS011;57301;50.328;8.542;2023-01-30T12:10:50;6.05;;;2.60;;
69970;SDS011;57301;50.328;8.542;2023-01-30T12:13:28;4.57;;;2.42;;
69970;SDS011;57301;50.328;8.542;2023-01-30T12:16:09;3.95;;;2.72;;
69970;SDS011;57301;50.328;8.542;2023-01-30T12:18:42;5.87;;;2.43;;
69970;SDS011;57301;50.328;8.542;2023-01-30T12:27:11;5.35;;;2.60;;
69970;SDS011;57301;50.328;8.542;2023-01-30T12:30:17;6.50;;;3.20;;
69970;SDS011;57301;50.328;8.542;2023-01-30T12:33:04;6.43;;;2.97;;
69970;SDS011;57301;50.328;8.542;2023-01-30T12:35:46;6.15;;;2.80;;
69970;SDS011;57301;50.328;8.542;2023-01-30T12:41:27;5.05;;;2.50;;
69970;SDS011;57301;50.328;8.542;2023-01-30T12:58:02;4.75;;;2.70;;
69970;SDS011;57301;50.328;8.542;2023-01-30T13:14:50;6.77;;;2.47;;
69970;SDS011;57301;50.328;8.542;2023-01-30T13:17:30;4.97;;;2.65;;
69970;SDS011;57301;50.328;8.542;2023-01-30T13:23:05;7.38;;;2.60;;
69970;SDS011;57301;50.328;8.542;2023-01-30T13:25:45;6.88;;;2.72;;
69970;SDS011;57301;50.328;8.542;2023-01-30T13:28:19;8.13;;;2.60;;
69970;SDS011;57301;50.328;8.542;2023-01-30T13:30:51;10.27;;;2.78;;
69970;SDS011;57301;50.328;8.542;2023-01-30T13:33:19;6.57;;;2.70;;
69970;SDS011;57301;50.328;8.542;2023-01-30T13:35:55;11.10;;;2.90;;
69970;SDS011;57301;50.328;8.542;2023-01-30T13:38:30;7.18;;;3.30;;
69970;SDS011;57301;50.328;8.542;2023-01-30T13:41:01;9.90;;;2.83;;
69970;SDS011;57301;50.328;8.542;2023-01-30T13:43:40;11.88;;;3.50;;
69970;SDS011;57301;50.328;8.542;2023-01-30T13:46:13;11.20;;;2.97;;
69970;SDS011;57301;50.328;8.542;2023-01-30T13:52:01;9.57;;;2.70;;
69970;SDS011;57301;50.328;8.542;2023-01-30T13:59:51;11.55;;;3.03;;
69970;SDS011;57301;50.328;8.542;2023-01-30T14:16:49;10.43;;;2.50;;
69970;SDS011;57301;50.328;8.542;2023-01-30T14:22:16;8.23;;;2.40;;
69970;SDS011;57301;50.328;8.542;2023-01-30T14:27:51;11.90;;;4.07;;
69970;SDS011;57301;50.328;8.542;2023-01-30T14:32:57;8.25;;;2.40;;
69970;SDS011;57301;50.328;8.542;2023-01-30T14:35:27;7.70;;;2.57;;
69970;SDS011;57301;50.328;8.542;2023-01-30T14:40:47;13.35;;;6.53;;
69970;SDS011;57301;50.328;8.542;2023-01-30T14:46:04;8.88;;;3.03;;
69970;SDS011;57301;50.328;8.542;2023-01-30T14:59:17;9.77;;;3.10;;
69970;SDS011;57301;50.328;8.542;2023-01-30T15:04:22;9.15;;;2.72;;
69970;SDS011;57301;50.328;8.542;2023-01-30T15:06:51;12.45;;;3.60;;
69970;SDS011;57301;50.328;8.542;2023-01-30T15:09:22;11.85;;;3.10;;
69970;SDS011;57301;50.328;8.542;2023-01-30T15:11:55;10.07;;;3.22;;
69970;SDS011;57301;50.328;8.542;2023-01-30T15:28:24;12.13;;;3.20;;
69970;SDS011;57301;50.328;8.542;2023-01-30T15:31:08;14.88;;;3.60;;
69970;SDS011;57301;50.328;8.542;2023-01-30T15:33:49;8.23;;;2.67;;
69970;SDS011;57301;50.328;8.542;2023-01-30T15:36:31;9.85;;;2.80;;
69970;SDS011;57301;50.328;8.542;2023-01-30T15:39:01;15.38;;;3.53;;
69970;SDS011;57301;50.328;8.542;2023-01-30T15:41:28;8.00;;;2.67;;
69970;SDS011;57301;50.328;8.542;2023-01-30T15:44:00;14.55;;;4.32;;
69970;SDS011;57301;50.328;8.542;2023-01-30T15:49:40;10.07;;;3.63;;
69970;SDS011;57301;50.328;8.542;2023-01-30T15:52:19;16.40;;;3.08;;
69970;SDS011;57301;50.328;8.542;2023-01-30T15:54:51;14.07;;;3.30;;
69970;SDS011;57301;50.328;8.542;2023-01-30T15:57:22;11.30;;;3.15;;
69970;SDS011;57301;50.328;8.542;2023-01-30T15:59:57;15.32;;;5.13;;
69970;SDS011;57301;50.328;8.542;2023-01-30T16:02:35;11.52;;;3.00;;
69970;SDS011;57301;50.328;8.542;2023-01-30T16:05:18;13.68;;;4.38;;
69970;SDS011;57301;50.328;8.542;2023-01-30T16:07:48;17.47;;;4.63;;
69970;SDS011;57301;50.328;8.542;2023-01-30T16:10:17;14.38;;;4.10;;
69970;SDS011;57301;50.328;8.542;2023-01-30T16:12:46;13.27;;;3.20;;
69970;SDS011;57301;50.328;8.542;2023-01-30T16:17:54;15.40;;;3.97;;
69970;SDS011;57301;50.328;8.542;2023-01-30T16:20:29;12.43;;;3.20;;
69970;SDS011;57301;50.328;8.542;2023-01-30T16:23:27;10.80;;;3.15;;
69970;SDS011;57301;50.328;8.542;2023-01-30T16:25:59;13.88;;;4.05;;
69970;SDS011;57301;50.328;8.542;2023-01-30T16:28:27;16.70;;;3.63;;
69970;SDS011;57301;50.328;8.542;2023-01-30T16:30:59;19.10;;;3.75;;
69970;SDS011;57301;50.328;8.542;2023-01-30T16:33:28;12.17;;;2.87;;
69970;SDS011;57301;50.328;8.542;2023-01-30T16:36:02;10.73;;;3.47;;
69970;SDS011;57301;50.328;8.542;2023-01-30T16:38:52;15.10;;;4.70;;
69970;SDS011;57301;50.328;8.542;2023-01-30T16:49:12;16.92;;;4.15;;
69970;SDS011;57301;50.328;8.542;2023-01-30T16:51:42;11.30;;;4.10;;
69970;SDS011;57301;50.328;8.542;2023-01-30T16:54:20;13.23;;;5.07;;
69970;SDS011;57301;50.328;8.542;2023-01-30T16:56:51;13.55;;;4.28;;
69970;SDS011;57301;50.328;8.542;2023-01-30T16:59:24;14.03;;;4.60;;
69970;SDS011;57301;50.328;8.542;2023-01-30T17:01:55;15.60;;;4.63;;
69970;SDS011;57301;50.328;8.542;2023-01-30T17:04:26;11.60;;;3.28;;
69970;SDS011;57301;50.328;8.542;2023-01-30T17:06:59;15.13;;;4.55;;
69970;SDS011;57301;50.328;8.542;2023-01-30T17:09:34;15.32;;;4.05;;
69970;SDS011;57301;50.328;8.542;2023-01-30T17:17:37;13.40;;;3.33;;
69970;SDS011;57301;50.328;8.542;2023-01-30T17:20:07;9.05;;;2.70;;
69970;SDS011;57301;50.328;8.542;2023-01-30T17:22:34;9.75;;;2.78;;
69970;SDS011;57301;50.328;8.542;2023-01-30T17:25:05;14.17;;;3.63;;
69970;SDS011;57301;50.328;8.542;2023-01-30T17:27:39;14.90;;;3.95;;
69970;SDS011;57301;50.328;8.542;2023-01-30T17:30:16;12.68;;;3.65;;
69970;SDS011;57301;50.328;8.542;2023-01-30T17:32:44;14.25;;;4.40;;
69970;SDS011;57301;50.328;8.542;2023-01-30T17:35:10;11.73;;;3.80;;
69970;SDS011;57301;50.328;8.542;2023-01-30T17:37:37;16.20;;;3.60;;
69970;SDS011;57301;50.328;8.542;2023-01-30T17:40:14;11.75;;;3.20;;
69970;SDS011;57301;50.328;8.542;2023-01-30T17:42:42;10.50;;;3.38;;
69970;SDS011;57301;50.328;8.542;2023-01-30T17:45:09;10.43;;;3.55;;
69970;SDS011;57301;50.328;8.542;2023-01-30T17:47:36;28.08;;;10.82;;
69970;SDS011;57301;50.328;8.542;2023-01-30T17:50:03;20.50;;;6.20;;
69970;SDS011;57301;50.328;8.542;2023-01-30T17:52:29;16.65;;;4.10;;
69970;SDS011;57301;50.328;8.542;2023-01-30T17:54:56;13.85;;;4.00;;
69970;SDS011;57301;50.328;8.542;2023-01-30T17:57:23;16.27;;;3.80;;
69970;SDS011;57301;50.328;8.542;2023-01-30T17:59:50;16.00;;;3.17;;
69970;SDS011;57301;50.328;8.542;2023-01-30T18:02:16;14.30;;;3.60;;
69970;SDS011;57301;50.328;8.542;2023-01-30T18:04:43;17.77;;;4.30;;
69970;SDS011;57301;50.328;8.542;2023-01-30T18:07:10;12.93;;;3.35;;
69970;SDS011;57301;50.328;8.542;2023-01-30T18:09:39;12.77;;;3.72;;
69970;SDS011;57301;50.328;8.542;2023-01-30T18:12:06;6.05;;;2.55;;
69970;SDS011;57301;50.328;8.542;2023-01-30T18:14:32;13.83;;;3.80;;
69970;SDS011;57301;50.328;8.542;2023-01-30T18:16:59;15.55;;;3.40;;
69970;SDS011;57301;50.328;8.542;2023-01-30T18:19:27;13.18;;;3.65;;
69970;SDS011;57301;50.328;8.542;2023-01-30T18:21:54;11.07;;;3.85;;
69970;SDS011;57301;50.328;8.542;2023-01-30T18:24:25;9.20;;;3.83;;